Minerva Anna — SVNP — position and weather

sailwx.info

Track history (hours):
 
Tides and Currents Weather Stations Pressure Air Temp Water Temp Dewpoint Dewpoint Depression Visibility Wind Speed Wind Dir Waves Ship Positions

Minerva Anna

Last reported at 2017-Aug-16 07:39 UTC. Time now 2017-Aug-16 21:42 UTC.
Position N 29°21' W 094°42'.

Length 183 m; draft 11 m.

Type: Ship. MMSI: 240729000.

Date/timePositionNaut miles runAvg speedWind from/ knotsBaromVisibWave heightAir tempDewpointWater temp
2017-Aug-16 07:39N 29°21' W 094°42'211.5
2017-Aug-16 07:30N 29°21' W 094°44'5 9.5
2017-Aug-16 07:00N 29°23' W 094°49'1010.3
2017-Aug-16 06:01N 29°32' W 094°54'010.6
2017-Aug-16 06:00N 29°32' W 094°54'611.1
2017-Aug-16 05:30N 29°37' W 094°57'5 9.8
2017-Aug-16 05:00N 29°42' W 094°59'4 7.3
2017-Aug-16 04:30N 29°44' W 095°03'3 5.8
2017-Aug-16 04:01N 29°45' W 095°06'0 0.0
2017-Aug-14 08:31N 29°45' W 095°06'0 0.9
2017-Aug-14 08:30N 29°45' W 095°06'1 2.6
2017-Aug-14 08:01N 29°46' W 095°05'4 7.9
2017-Aug-14 07:31N 29°43' W 095°01'5 9.8
2017-Aug-14 07:01N 29°39' W 094°58'612.8
2017-Aug-14 06:30N 29°34' W 094°55'713.4
2017-Aug-14 06:01N 29°28' W 094°51'714.5
2017-Aug-14 05:30N 29°21' W 094°47'1710.5
2017-Aug-14 03:51N 29°16' W 094°28'0 0.5
2017-Aug-14 03:30N 29°16' W 094°28'0 0.0
2017-Aug-14 02:03N 29°16' W 094°28'0 0.1
2017-Aug-14 01:57N 29°16' W 094°28'0 0.0
2017-Aug-14 01:27N 29°16' W 094°28'0 0.0
2017-Aug-14 00:57N 29°16' W 094°28'0 0.0
2017-Aug-13 08:45N 29°16' W 094°28'0 0.0
2017-Aug-13 03:54N 29°16' W 094°28'0 0.0
2017-Aug-13 00:24N 29°16' W 094°28'  
Track history (hours):
 
Tides and Currents Weather Stations Pressure Air Temp Water Temp Dewpoint Dewpoint Depression Visibility Wind Speed Wind Dir Waves Ship Positions

Minerva Anna

Last reported at 2017-Aug-16 07:39 UTC. Time now 2017-Aug-16 21:42 UTC.
Position N 29°21' W 094°42'.

Length 183 m; draft 11 m.

Type: Ship. MMSI: 240729000.

Date/timePositionNaut miles runAvg speedWind from/ knotsBaromVisibWave heightAir tempDewpointWater temp
2017-Aug-16 07:39N 29°21' W 094°42'211.5
2017-Aug-16 07:30N 29°21' W 094°44'5 9.5
2017-Aug-16 07:00N 29°23' W 094°49'1010.3
2017-Aug-16 06:01N 29°32' W 094°54'010.6
2017-Aug-16 06:00N 29°32' W 094°54'611.1
2017-Aug-16 05:30N 29°37' W 094°57'5 9.8
2017-Aug-16 05:00N 29°42' W 094°59'4 7.3
2017-Aug-16 04:30N 29°44' W 095°03'3 5.8
2017-Aug-16 04:01N 29°45' W 095°06'0 0.0
2017-Aug-14 08:31N 29°45' W 095°06'0 0.9
2017-Aug-14 08:30N 29°45' W 095°06'1 2.6
2017-Aug-14 08:01N 29°46' W 095°05'4 7.9
2017-Aug-14 07:31N 29°43' W 095°01'5 9.8
2017-Aug-14 07:01N 29°39' W 094°58'612.8
2017-Aug-14 06:30N 29°34' W 094°55'713.4
2017-Aug-14 06:01N 29°28' W 094°51'714.5
2017-Aug-14 05:30N 29°21' W 094°47'1710.5
2017-Aug-14 03:51N 29°16' W 094°28'0 0.5
2017-Aug-14 03:30N 29°16' W 094°28'0 0.0
2017-Aug-14 02:03N 29°16' W 094°28'0 0.1
2017-Aug-14 01:57N 29°16' W 094°28'0 0.0
2017-Aug-14 01:27N 29°16' W 094°28'0 0.0
2017-Aug-14 00:57N 29°16' W 094°28'0 0.0
2017-Aug-13 08:45N 29°16' W 094°28'0 0.0
2017-Aug-13 03:54N 29°16' W 094°28'0 0.0
2017-Aug-13 00:24N 29°16' W 094°28'  

Dump ship's entire track history